Time;durP1;ratioP1;P1;durP2;ratioP2;P2;SDS_P1;SDS_P2;PMS_P1;PMS_P2;Temp;Humidity;BMP_temperature;BMP_pressure;BME280_temperature;BME280_humidity;BME280_pressure;Samples;Min_cycle;Max_cycle;Signal;HPM_P1;HPM_P2
2021/03/13 00:02:03;;;;;;;0.57;0.57;;;;;;;;;;5032074;28;20242;-75
2021/03/13 00:04:29;;;;;;;0.60;0.60;;;;;;;;;;5031414;28;20706;-75
2021/03/13 00:06:55;;;;;;;0.25;0.25;;;;;;;;;;5031659;28;20193;-76
2021/03/13 00:09:21;;;;;;;0.20;0.20;;;;;;;;;;5031705;28;20182;-76
2021/03/13 00:11:47;;;;;;;0.17;0.17;;;;;;;;;;5046995;28;20197;-76
2021/03/13 00:14:13;;;;;;;0.28;0.28;;;;;;;;;;5032561;28;20231;-75
2021/03/13 00:16:40;;;;;;;0.00;0.00;;;;;;;;;;5033338;28;20189;-74
2021/03/13 00:19:06;;;;;;;0.10;0.10;;;;;;;;;;5051168;28;20176;-74
2021/03/13 00:21:32;;;;;;;0.30;0.30;;;;;;;;;;5051302;28;20177;-76
2021/03/13 00:23:58;;;;;;;0.20;0.20;;;;;;;;;;5033113;28;20292;-75
2021/03/13 00:26:24;;;;;;;0.57;0.57;;;;;;;;;;5033267;28;20233;-76
2021/03/13 00:28:51;;;;;;;0.10;0.10;;;;;;;;;;5033241;28;20200;-76
2021/03/13 00:31:17;;;;;;;0.10;0.10;;;;;;;;;;5051010;28;20158;-76
2021/03/13 00:33:43;;;;;;;0.43;0.43;;;;;;;;;;5050721;28;20200;-76
2021/03/13 00:36:09;;;;;;;0.13;0.13;;;;;;;;;;5050901;28;20570;-75
2021/03/13 00:38:35;;;;;;;0.10;0.10;;;;;;;;;;5050656;28;20177;-75
2021/03/13 00:41:02;;;;;;;0.30;0.30;;;;;;;;;;5049407;28;20176;-76
2021/03/13 00:43:28;;;;;;;0.60;0.60;;;;;;;;;;5050640;28;20307;-75
2021/03/13 00:45:54;;;;;;;0.30;0.30;;;;;;;;;;5050560;28;20194;-76
2021/03/13 00:48:21;;;;;;;0.10;0.10;;;;;;;;;;5050284;28;20225;-77
2021/03/13 00:50:47;;;;;;;0.65;0.65;;;;;;;;;;5050616;28;20176;-78
2021/03/13 00:53:14;;;;;;;0.10;0.10;;;;;;;;;;5050411;28;20218;-77
2021/03/13 00:55:41;;;;;;;0.10;0.10;;;;;;;;;;5050507;28;20170;-77
2021/03/13 00:58:07;;;;;;;0.35;0.35;;;;;;;;;;5050545;28;20165;-77
2021/03/13 01:00:33;;;;;;;0.10;0.10;;;;;;;;;;5050318;28;20164;-77
2021/03/13 01:02:59;;;;;;;0.28;0.28;;;;;;;;;;5048896;28;20201;-75
2021/03/13 01:05:26;;;;;;;0.88;0.88;;;;;;;;;;5050252;28;20189;-75
2021/03/13 01:07:52;;;;;;;0.20;0.20;;;;;;;;;;5049001;28;20513;-77
2021/03/13 01:10:21;;;;;;;0.28;0.28;;;;;;;;;;5050104;28;20225;-76
2021/03/13 01:12:47;;;;;;;0.20;0.20;;;;;;;;;;5049917;28;20197;-76
2021/03/13 01:15:15;;;;;;;0.25;0.25;;;;;;;;;;5049973;28;20185;-75
2021/03/13 01:17:41;;;;;;;0.10;0.10;;;;;;;;;;5050048;28;20165;-75
2021/03/13 01:20:09;;;;;;;1.25;1.13;;;;;;;;;;5032180;28;20529;-75
2021/03/13 01:22:35;;;;;;;0.38;0.38;;;;;;;;;;5049871;28;20193;-76
2021/03/13 01:25:02;;;;;;;1.25;0.98;;;;;;;;;;5031970;28;20200;-76
2021/03/13 01:27:28;;;;;;;0.00;0.00;;;;;;;;;;5031940;28;20204;-76
2021/03/13 01:29:54;;;;;;;0.30;0.30;;;;;;;;;;5049769;28;20158;-76
2021/03/13 01:32:20;;;;;;;0.32;0.32;;;;;;;;;;5032016;28;20196;-77
2021/03/13 01:34:46;;;;;;;0.30;0.30;;;;;;;;;;5049792;28;20166;-76
2021/03/13 01:37:17;;;;;;;0.20;0.20;;;;;;;;;;5049682;28;20217;-76
2021/03/13 01:39:43;;;;;;;0.10;0.10;;;;;;;;;;5049369;28;20250;-76
2021/03/13 01:42:09;;;;;;;0.10;0.10;;;;;;;;;;5049400;28;20172;-76
2021/03/13 01:44:36;;;;;;;0.20;0.20;;;;;;;;;;5048322;28;20619;-75
2021/03/13 01:47:02;;;;;;;0.10;0.10;;;;;;;;;;5049256;28;20245;-76
2021/03/13 01:49:30;;;;;;;0.10;0.10;;;;;;;;;;5049602;28;20162;-77
2021/03/13 01:51:57;;;;;;;0.30;0.30;;;;;;;;;;5048078;28;20240;-77
2021/03/13 01:54:23;;;;;;;0.30;0.30;;;;;;;;;;5049455;28;20197;-77
2021/03/13 01:56:50;;;;;;;0.10;0.10;;;;;;;;;;5049507;28;20170;-79
2021/03/13 01:59:20;;;;;;;0.20;0.20;;;;;;;;;;5047648;28;20212;-77
2021/03/13 02:01:47;;;;;;;0.15;0.15;;;;;;;;;;5049291;28;20181;-78
2021/03/13 02:04:15;;;;;;;0.10;0.10;;;;;;;;;;5049240;28;20189;-78
2021/03/13 02:06:42;;;;;;;0.52;0.52;;;;;;;;;;5048330;28;20210;-79
2021/03/13 02:09:18;;;;;;;0.10;0.10;;;;;;;;;;5031407;28;20173;-78
2021/03/13 02:12:13;;;;;;;0.15;0.15;;;;;;;;;;5049173;28;20161;-78
2021/03/13 02:15:12;;;;;;;0.93;0.93;;;;;;;;;;5022959;28;20204;-79
2021/03/13 02:17:52;;;;;;;0.10;0.10;;;;;;;;;;5007527;28;20206;-78
2021/03/13 02:20:29;;;;;;;3.13;0.90;;;;;;;;;;5007592;28;20186;-77
2021/03/13 02:22:56;;;;;;;0.50;0.50;;;;;;;;;;4991300;28;20206;-78
2021/03/13 02:25:35;;;;;;;0.30;0.30;;;;;;;;;;4991052;28;20261;-79
2021/03/13 02:28:20;;;;;;;0.13;0.13;;;;;;;;;;5007621;28;20197;-74
2021/03/13 02:30:46;;;;;;;1.98;1.88;;;;;;;;;;4991207;28;20226;-75
2021/03/13 02:33:20;;;;;;;1.27;1.27;;;;;;;;;;5007439;28;20197;-75
2021/03/13 02:35:50;;;;;;;0.10;0.10;;;;;;;;;;4991161;28;20198;-75
2021/03/13 02:38:23;;;;;;;1.30;0.68;;;;;;;;;;4992630;28;20182;-76
2021/03/13 02:40:50;;;;;;;0.10;0.10;;;;;;;;;;5011495;28;20197;-76
2021/03/13 02:43:17;;;;;;;1.38;1.02;;;;;;;;;;4994887;28;20321;-77
2021/03/13 02:45:45;;;;;;;0.60;0.60;;;;;;;;;;4994489;28;20361;-76
2021/03/13 02:48:13;;;;;;;0.10;0.10;;;;;;;;;;5010932;28;20257;-76
2021/03/13 02:50:40;;;;;;;0.10;0.10;;;;;;;;;;5011075;28;20191;-78
2021/03/13 02:53:07;;;;;;;0.20;0.20;;;;;;;;;;5013396;28;20236;-76
2021/03/13 02:55:33;;;;;;;1.65;1.55;;;;;;;;;;5034551;28;20197;-77
2021/03/13 02:58:01;;;;;;;0.10;0.10;;;;;;;;;;5034701;28;20173;-77
2021/03/13 03:00:30;;;;;;;0.55;0.55;;;;;;;;;;5034682;28;20173;-76
2021/03/13 03:02:57;;;;;;;0.10;0.10;;;;;;;;;;5052361;28;20172;-76
2021/03/13 03:05:24;;;;;;;0.73;0.73;;;;;;;;;;5052259;28;20209;-77
2021/03/13 03:07:54;;;;;;;2.05;1.65;;;;;;;;;;5052202;28;20184;-75
2021/03/13 03:10:22;;;;;;;0.10;0.10;;;;;;;;;;5034382;28;20236;-78
2021/03/13 03:12:49;;;;;;;1.00;1.00;;;;;;;;;;5052234;28;20161;-76
2021/03/13 03:15:16;;;;;;;0.10;0.10;;;;;;;;;;5034385;28;20200;-77
2021/03/13 03:17:42;;;;;;;0.08;0.08;;;;;;;;;;5034227;28;20185;-78
2021/03/13 03:20:10;;;;;;;0.10;0.10;;;;;;;;;;5052021;28;20169;-76
2021/03/13 03:22:37;;;;;;;0.70;0.65;;;;;;;;;;5051932;28;20189;-78
2021/03/13 03:25:05;;;;;;;0.73;0.73;;;;;;;;;;5034024;28;20223;-77
2021/03/13 03:27:31;;;;;;;0.95;0.95;;;;;;;;;;5051866;28;20156;-78
2021/03/13 03:29:58;;;;;;;0.10;0.10;;;;;;;;;;5034040;28;20196;-77
2021/03/13 03:32:24;;;;;;;2.03;1.92;;;;;;;;;;5034080;28;20166;-77
2021/03/13 03:34:50;;;;;;;0.28;0.28;;;;;;;;;;5051815;28;20161;-77
2021/03/13 03:37:16;;;;;;;1.08;0.90;;;;;;;;;;5051792;28;20184;-75
2021/03/13 03:39:42;;;;;;;0.30;0.30;;;;;;;;;;5051674;28;20172;-76
2021/03/13 03:42:10;;;;;;;0.10;0.10;;;;;;;;;;5033858;28;20165;-77
2021/03/13 03:44:42;;;;;;;0.70;0.70;;;;;;;;;;5033765;28;20200;-77
2021/03/13 03:47:09;;;;;;;0.40;0.40;;;;;;;;;;5051239;28;20237;-77
2021/03/13 03:49:38;;;;;;;1.38;0.63;;;;;;;;;;5050311;28;20161;-76
2021/03/13 03:52:04;;;;;;;1.08;0.73;;;;;;;;;;5033734;28;20629;-76
2021/03/13 03:54:33;;;;;;;0.55;0.55;;;;;;;;;;5051502;28;20181;-76
2021/03/13 03:57:00;;;;;;;0.10;0.10;;;;;;;;;;5051286;28;20197;-76
2021/03/13 03:59:26;;;;;;;0.25;0.25;;;;;;;;;;5033415;28;20177;-77
2021/03/13 04:01:53;;;;;;;0.30;0.30;;;;;;;;;;5051414;28;20180;-76
2021/03/13 04:04:22;;;;;;;0.73;0.73;;;;;;;;;;5051260;28;20195;-77
2021/03/13 04:06:49;;;;;;;0.30;0.30;;;;;;;;;;5050955;28;20197;-76
2021/03/13 04:09:18;;;;;;;0.10;0.10;;;;;;;;;;5051186;28;20221;-77
2021/03/13 04:11:45;;;;;;;0.20;0.20;;;;;;;;;;5051159;28;20162;-77
2021/03/13 04:14:11;;;;;;;0.10;0.10;;;;;;;;;;5050871;28;20162;-77
2021/03/13 04:16:38;;;;;;;0.25;0.25;;;;;;;;;;5033280;28;20235;-77
2021/03/13 04:19:05;;;;;;;4.72;0.95;;;;;;;;;;5050869;28;20169;-75
2021/03/13 04:21:31;;;;;;;0.65;0.65;;;;;;;;;;5051046;28;20161;-77
2021/03/13 04:23:58;;;;;;;0.32;0.32;;;;;;;;;;5033070;28;20185;-75
2021/03/13 04:26:25;;;;;;;0.57;0.43;;;;;;;;;;5050693;28;20190;-77
2021/03/13 04:28:52;;;;;;;0.20;0.20;;;;;;;;;;5050660;28;20162;-74
2021/03/13 04:31:21;;;;;;;0.10;0.10;;;;;;;;;;5050844;28;20626;-77
2021/03/13 04:33:48;;;;;;;0.20;0.20;;;;;;;;;;5050796;28;20166;-77
2021/03/13 04:36:15;;;;;;;0.20;0.20;;;;;;;;;;5032880;28;20564;-77
2021/03/13 04:38:41;;;;;;;0.30;0.30;;;;;;;;;;5032545;28;20549;-77
2021/03/13 04:41:08;;;;;;;0.10;0.10;;;;;;;;;;5032654;28;20181;-75
2021/03/13 04:43:36;;;;;;;2.03;1.88;;;;;;;;;;5032828;28;20173;-78
2021/03/13 04:46:03;;;;;;;0.20;0.20;;;;;;;;;;5050179;28;20209;-76
2021/03/13 04:48:31;;;;;;;0.38;0.38;;;;;;;;;;5028997;28;20600;-77
2021/03/13 04:50:59;;;;;;;0.20;0.20;;;;;;;;;;5030581;28;20628;-77
2021/03/13 04:53:25;;;;;;;1.02;0.68;;;;;;;;;;5030556;28;20162;-76
2021/03/13 04:55:51;;;;;;;0.10;0.10;;;;;;;;;;5030482;28;20209;-76
2021/03/13 04:58:17;;;;;;;0.43;0.43;;;;;;;;;;5030420;28;20173;-76
2021/03/13 05:00:45;;;;;;;0.35;0.35;;;;;;;;;;5028689;28;20193;-76
2021/03/13 05:03:11;;;;;;;0.10;0.10;;;;;;;;;;5030253;28;20169;-75
2021/03/13 05:05:37;;;;;;;0.30;0.30;;;;;;;;;;5030158;28;20674;-76
2021/03/13 05:08:04;;;;;;;0.85;0.85;;;;;;;;;;5030104;28;20162;-77
2021/03/13 05:10:30;;;;;;;0.10;0.10;;;;;;;;;;5030095;28;20158;-77
2021/03/13 05:12:56;;;;;;;0.20;0.20;;;;;;;;;;5030189;28;20168;-77
2021/03/13 05:15:26;;;;;;;0.43;0.43;;;;;;;;;;5030062;28;20220;-77
2021/03/13 05:17:52;;;;;;;0.38;0.38;;;;;;;;;;5030194;28;20520;-77
2021/03/13 05:20:19;;;;;;;0.10;0.10;;;;;;;;;;5030069;28;20166;-76
2021/03/13 05:22:52;;;;;;;2.75;2.55;;;;;;;;;;5028801;28;20182;-77
2021/03/13 05:25:18;;;;;;;0.63;0.63;;;;;;;;;;5029653;28;20273;-79
2021/03/13 05:27:44;;;;;;;0.10;0.10;;;;;;;;;;5029893;28;20214;-78
2021/03/13 05:30:11;;;;;;;1.38;0.70;;;;;;;;;;5029871;28;20162;-77
2021/03/13 05:32:39;;;;;;;0.20;0.20;;;;;;;;;;5029937;28;20158;-77
2021/03/13 05:35:06;;;;;;;0.70;0.70;;;;;;;;;;5029597;28;20177;-77
2021/03/13 05:37:32;;;;;;;0.10;0.10;;;;;;;;;;5028420;28;20214;-78
2021/03/13 05:39:58;;;;;;;0.40;0.40;;;;;;;;;;5028413;28;20173;-77
2021/03/13 05:42:26;;;;;;;0.13;0.13;;;;;;;;;;5028443;28;20212;-77
2021/03/13 05:44:54;;;;;;;0.28;0.28;;;;;;;;;;5027877;28;20678;-77
2021/03/13 05:47:21;;;;;;;0.10;0.10;;;;;;;;;;5034653;28;20275;-77
2021/03/13 05:49:54;;;;;;;0.10;0.10;;;;;;;;;;5031248;28;20276;-78
2021/03/13 05:52:21;;;;;;;0.10;0.10;;;;;;;;;;5049252;28;20177;-77
2021/03/13 05:54:50;;;;;;;1.48;1.38;;;;;;;;;;5049109;28;20185;-79
2021/03/13 05:57:16;;;;;;;0.43;0.43;;;;;;;;;;5049144;28;20168;-78
2021/03/13 05:59:42;;;;;;;4.63;1.60;;;;;;;;;;5049182;28;20165;-77
2021/03/13 06:02:10;;;;;;;0.88;0.88;;;;;;;;;;5031400;28;20165;-74
2021/03/13 06:04:36;;;;;;;1.85;1.48;;;;;;;;;;5031155;28;20296;-76
2021/03/13 06:07:02;;;;;;;0.85;0.85;;;;;;;;;;5049022;28;20200;-77
2021/03/13 06:09:29;;;;;;;0.30;0.30;;;;;;;;;;5031237;28;20198;-77
2021/03/13 06:11:55;;;;;;;0.10;0.10;;;;;;;;;;5048626;28;20162;-77
2021/03/13 06:14:21;;;;;;;0.55;0.55;;;;;;;;;;5048605;28;20161;-77
2021/03/13 06:16:47;;;;;;;0.43;0.43;;;;;;;;;;5048912;28;20188;-77
2021/03/13 06:19:13;;;;;;;2.53;2.42;;;;;;;;;;5048872;28;20172;-76
2021/03/13 06:21:40;;;;;;;0.65;0.65;;;;;;;;;;5048826;28;20185;-76
2021/03/13 06:24:10;;;;;;;0.43;0.43;;;;;;;;;;5031279;28;20234;-76
2021/03/13 06:26:54;;;;;;;0.10;0.10;;;;;;;;;;5031098;28;20197;-77
2021/03/13 06:29:21;;;;;;;0.10;0.10;;;;;;;;;;5048711;28;20157;-76
2021/03/13 06:32:16;;;;;;;0.60;0.60;;;;;;;;;;5048940;28;20164;-75
2021/03/13 06:34:43;;;;;;;1.20;1.17;;;;;;;;;;5047566;28;20189;-76
2021/03/13 06:37:24;;;;;;;3.45;1.67;;;;;;;;;;5048616;28;20667;-77
2021/03/13 06:39:51;;;;;;;0.30;0.30;;;;;;;;;;5048764;28;20170;-76
2021/03/13 06:42:23;;;;;;;1.90;1.80;;;;;;;;;;5048699;28;20218;-76
2021/03/13 06:45:03;;;;;;;0.10;0.10;;;;;;;;;;5030677;28;20208;-76
2021/03/13 06:47:33;;;;;;;0.85;0.85;;;;;;;;;;5027386;28;20226;-76
2021/03/13 06:50:18;;;;;;;3.20;1.48;;;;;;;;;;5028832;28;20189;-75
2021/03/13 06:52:47;;;;;;;0.47;0.47;;;;;;;;;;5028961;28;20657;-77
2021/03/13 06:55:17;;;;;;;0.10;0.10;;;;;;;;;;5027361;28;20201;-75
2021/03/13 06:57:44;;;;;;;0.05;0.05;;;;;;;;;;5027552;28;20178;-75
2021/03/13 07:00:25;;;;;;;0.52;0.52;;;;;;;;;;5028691;28;20174;-75
2021/03/13 07:02:51;;;;;;;0.82;0.82;;;;;;;;;;5028830;28;20177;-77
2021/03/13 07:05:17;;;;;;;3.05;1.70;;;;;;;;;;5028620;28;20237;-75
2021/03/13 07:07:44;;;;;;;1.00;1.00;;;;;;;;;;5028615;28;20190;-75
2021/03/13 07:10:10;;;;;;;3.30;1.55;;;;;;;;;;5028759;28;20162;-76
2021/03/13 07:12:41;;;;;;;0.30;0.30;;;;;;;;;;5028585;28;20162;-77
2021/03/13 07:15:13;;;;;;;1.05;1.05;;;;;;;;;;5027395;28;20217;-77
2021/03/13 07:17:40;;;;;;;0.15;0.15;;;;;;;;;;5027427;28;20185;-78
2021/03/13 07:20:07;;;;;;;0.30;0.30;;;;;;;;;;5028618;28;20174;-78
2021/03/13 07:22:33;;;;;;;0.55;0.55;;;;;;;;;;5028241;28;20166;-77
2021/03/13 07:25:01;;;;;;;0.10;0.10;;;;;;;;;;5031043;28;20281;-77
2021/03/13 07:27:30;;;;;;;0.45;0.45;;;;;;;;;;5032155;28;20189;-77
2021/03/13 07:29:57;;;;;;;1.25;1.15;;;;;;;;;;5032094;28;20170;-77
2021/03/13 07:32:25;;;;;;;5.80;2.28;;;;;;;;;;5032080;28;20162;-77
2021/03/13 07:34:57;;;;;;;0.45;0.45;;;;;;;;;;5031889;28;20154;-77
2021/03/13 07:37:24;;;;;;;15.43;3.03;;;;;;;;;;5030709;28;20173;-76
2021/03/13 07:39:51;;;;;;;1.05;1.05;;;;;;;;;;5030553;28;20189;-76
2021/03/13 07:42:21;;;;;;;1.63;1.50;;;;;;;;;;5032011;28;20154;-74
2021/03/13 07:44:49;;;;;;;0.30;0.30;;;;;;;;;;5030143;28;20271;-75
2021/03/13 07:47:16;;;;;;;0.35;0.35;;;;;;;;;;5030115;28;20232;-76
2021/03/13 07:49:42;;;;;;;1.65;1.55;;;;;;;;;;5031247;28;20181;-77
2021/03/13 07:52:09;;;;;;;0.10;0.10;;;;;;;;;;5031628;28;20170;-75
2021/03/13 07:54:40;;;;;;;3.55;3.30;;;;;;;;;;5031493;28;20163;-76
2021/03/13 07:57:07;;;;;;;0.10;0.10;;;;;;;;;;5030213;28;20205;-77
2021/03/13 07:59:46;;;;;;;1.27;1.27;;;;;;;;;;5030056;28;20174;-75
2021/03/13 08:02:30;;;;;;;0.98;0.98;;;;;;;;;;5031151;28;20241;-76
2021/03/13 08:04:56;;;;;;;0.30;0.30;;;;;;;;;;5029958;28;20197;-77
2021/03/13 08:07:23;;;;;;;0.77;0.77;;;;;;;;;;5031317;28;20158;-76
2021/03/13 08:09:49;;;;;;;0.13;0.13;;;;;;;;;;5031373;28;20158;-75
2021/03/13 08:12:45;;;;;;;1.33;1.00;;;;;;;;;;5031108;28;20210;-75
2021/03/13 08:15:33;;;;;;;0.32;0.32;;;;;;;;;;5022138;28;20198;-75
2021/03/13 08:18:00;;;;;;;0.50;0.50;;;;;;;;;;5030845;28;20216;-74
2021/03/13 08:20:30;;;;;;;0.52;0.52;;;;;;;;;;5030345;28;20177;-76
2021/03/13 08:23:12;;;;;;;0.65;0.65;;;;;;;;;;5031751;28;20166;-74
2021/03/13 08:25:53;;;;;;;1.38;1.27;;;;;;;;;;5031020;28;20221;-74
2021/03/13 08:28:38;;;;;;;0.73;0.73;;;;;;;;;;5029781;28;20257;-76
2021/03/13 08:31:28;;;;;;;0.45;0.45;;;;;;;;;;5027846;28;20166;-75
2021/03/13 08:33:57;;;;;;;0.75;0.30;;;;;;;;;;5028730;28;20166;-75
2021/03/13 08:36:27;;;;;;;0.40;0.40;;;;;;;;;;5028379;28;20221;-77
2021/03/13 08:39:04;;;;;;;0.20;0.20;;;;;;;;;;5027326;28;20192;-77
2021/03/13 08:41:50;;;;;;;0.30;0.30;;;;;;;;;;5027223;28;20193;-75
2021/03/13 08:44:17;;;;;;;1.42;1.33;;;;;;;;;;5029959;28;20206;-75
2021/03/13 08:46:46;;;;;;;1.40;1.20;;;;;;;;;;5030472;28;20501;-76
2021/03/13 08:49:25;;;;;;;0.60;0.60;;;;;;;;;;5032670;28;20173;-76
2021/03/13 08:52:09;;;;;;;0.47;0.47;;;;;;;;;;5050606;28;20195;-76
2021/03/13 08:54:43;;;;;;;0.40;0.40;;;;;;;;;;5033840;28;20177;-75
2021/03/13 08:57:16;;;;;;;2.28;1.20;;;;;;;;;;5032896;28;20177;-76
2021/03/13 08:59:57;;;;;;;0.38;0.38;;;;;;;;;;5028846;28;20193;-76
2021/03/13 09:02:28;;;;;;;0.30;0.30;;;;;;;;;;5030144;28;20197;-76
2021/03/13 09:04:56;;;;;;;1.42;1.33;;;;;;;;;;5030188;28;20197;-77
2021/03/13 09:07:24;;;;;;;1.70;0.93;;;;;;;;;;5030427;28;20167;-74
2021/03/13 09:09:51;;;;;;;2.40;0.85;;;;;;;;;;5030217;28;20162;-76
2021/03/13 09:12:18;;;;;;;0.50;0.50;;;;;;;;;;5029908;28;20193;-77
2021/03/13 09:14:46;;;;;;;0.85;0.82;;;;;;;;;;5032919;28;20172;-72
2021/03/13 09:17:16;;;;;;;0.73;0.73;;;;;;;;;;5049505;28;20212;-75
2021/03/13 09:19:43;;;;;;;0.35;0.35;;;;;;;;;;5032102;28;20193;-75
2021/03/13 09:22:11;;;;;;;1.15;1.05;;;;;;;;;;5049963;28;20188;-75
2021/03/13 09:24:38;;;;;;;0.82;0.55;;;;;;;;;;5049407;28;20193;-74
2021/03/13 09:27:05;;;;;;;0.82;0.82;;;;;;;;;;5049532;28;20188;-74
2021/03/13 09:29:34;;;;;;;0.57;0.57;;;;;;;;;;5049661;28;20238;-73
2021/03/13 09:32:01;;;;;;;0.85;0.85;;;;;;;;;;5049883;28;20184;-76
2021/03/13 09:34:30;;;;;;;0.45;0.45;;;;;;;;;;5032094;28;20173;-75
2021/03/13 09:36:56;;;;;;;1.27;1.05;;;;;;;;;;5049222;28;20203;-75
2021/03/13 09:39:24;;;;;;;0.47;0.47;;;;;;;;;;5049421;28;20191;-76
2021/03/13 09:42:13;;;;;;;0.50;0.50;;;;;;;;;;5049381;28;20196;-76
2021/03/13 09:44:50;;;;;;;0.82;0.82;;;;;;;;;;5049256;28;20197;-75
2021/03/13 09:47:26;;;;;;;0.15;0.15;;;;;;;;;;5049184;28;20208;-75
2021/03/13 09:49:54;;;;;;;0.10;0.10;;;;;;;;;;5047732;28;20198;-76
2021/03/13 09:52:44;;;;;;;0.88;0.82;;;;;;;;;;5049172;28;20165;-75
2021/03/13 09:55:11;;;;;;;0.70;0.70;;;;;;;;;;5036400;28;20189;-74
2021/03/13 09:57:40;;;;;;;0.32;0.32;;;;;;;;;;5048784;28;20643;-75
2021/03/13 10:00:09;;;;;;;0.30;0.30;;;;;;;;;;5049137;28;20191;-77
2021/03/13 10:02:35;;;;;;;2.50;0.32;;;;;;;;;;5049186;28;20162;-74
2021/03/13 10:05:01;;;;;;;1.45;0.95;;;;;;;;;;5049110;28;20193;-75
2021/03/13 10:07:28;;;;;;;0.85;0.85;;;;;;;;;;5031301;28;20225;-75
2021/03/13 10:09:56;;;;;;;0.77;0.77;;;;;;;;;;5031618;28;20577;-74
2021/03/13 10:12:45;;;;;;;0.38;0.38;;;;;;;;;;5031139;28;20161;-76
2021/03/13 10:15:18;;;;;;;0.32;0.15;;;;;;;;;;5018466;28;20209;-75
2021/03/13 10:18:03;;;;;;;0.75;0.75;;;;;;;;;;5031081;28;20201;-75
2021/03/13 10:20:31;;;;;;;2.05;1.02;;;;;;;;;;5048749;28;20161;-75
2021/03/13 10:23:03;;;;;;;1.35;1.00;;;;;;;;;;5048825;28;20170;-75
2021/03/13 10:25:29;;;;;;;0.40;0.40;;;;;;;;;;5048719;28;20215;-74
2021/03/13 10:28:02;;;;;;;0.13;0.13;;;;;;;;;;5048663;28;20268;-75
2021/03/13 10:30:28;;;;;;;0.50;0.50;;;;;;;;;;5048755;28;20154;-73
2021/03/13 10:32:54;;;;;;;0.55;0.55;;;;;;;;;;5048055;28;20154;-75
2021/03/13 10:35:30;;;;;;;0.30;0.30;;;;;;;;;;5048617;28;20172;-73
2021/03/13 10:37:58;;;;;;;0.60;0.52;;;;;;;;;;5047876;28;20209;-76
2021/03/13 10:40:32;;;;;;;0.70;0.45;;;;;;;;;;5045443;28;20179;-75
2021/03/13 10:43:16;;;;;;;1.10;0.50;;;;;;;;;;5048386;28;20173;-74
2021/03/13 10:45:44;;;;;;;0.10;0.10;;;;;;;;;;5047271;28;20247;-75
2021/03/13 10:48:11;;;;;;;0.30;0.30;;;;;;;;;;5046847;28;20429;-73
2021/03/13 10:50:39;;;;;;;0.35;0.35;;;;;;;;;;5046848;28;20227;-75
2021/03/13 10:53:24;;;;;;;0.75;0.47;;;;;;;;;;5030619;28;20165;-75
2021/03/13 10:55:53;;;;;;;1.00;0.85;;;;;;;;;;5030450;28;20193;-74
2021/03/13 10:58:23;;;;;;;7.30;1.30;;;;;;;;;;5048141;28;20201;-76
2021/03/13 11:00:50;;;;;;;0.20;0.20;;;;;;;;;;5050788;28;20187;-77
2021/03/13 11:03:16;;;;;;;0.10;0.10;;;;;;;;;;5047067;28;20696;-77
2021/03/13 11:05:42;;;;;;;0.30;0.30;;;;;;;;;;5050580;28;20211;-77
2021/03/13 11:08:11;;;;;;;0.30;0.30;;;;;;;;;;5052142;28;20285;-78
2021/03/13 11:10:38;;;;;;;0.80;0.80;;;;;;;;;;5052020;28;20707;-78
2021/03/13 11:13:05;;;;;;;0.77;0.77;;;;;;;;;;5052227;28;20161;-77
2021/03/13 11:15:31;;;;;;;2.40;0.60;;;;;;;;;;5051758;28;20201;-78
2021/03/13 11:17:57;;;;;;;0.68;0.68;;;;;;;;;;5052190;28;20216;-77
2021/03/13 11:20:24;;;;;;;0.65;0.40;;;;;;;;;;5052251;28;20161;-77
2021/03/13 11:22:50;;;;;;;0.28;0.28;;;;;;;;;;5033811;28;20281;-76
2021/03/13 11:25:16;;;;;;;0.43;0.43;;;;;;;;;;5051858;28;20234;-76
2021/03/13 11:27:43;;;;;;;0.75;0.75;;;;;;;;;;5051849;28;20164;-74
2021/03/13 11:30:09;;;;;;;0.40;0.40;;;;;;;;;;5033985;28;20582;-74
2021/03/13 11:32:37;;;;;;;0.25;0.25;;;;;;;;;;5051636;28;20165;-73
2021/03/13 11:35:04;;;;;;;0.35;0.35;;;;;;;;;;5033874;28;20204;-75
2021/03/13 11:37:31;;;;;;;0.25;0.25;;;;;;;;;;5033895;28;20645;-76
2021/03/13 11:39:57;;;;;;;0.30;0.17;;;;;;;;;;5051631;28;20192;-74
2021/03/13 11:42:28;;;;;;;0.40;0.40;;;;;;;;;;5051424;28;20149;-77
2021/03/13 11:44:56;;;;;;;0.20;0.20;;;;;;;;;;5033509;28;20208;-77
2021/03/13 11:47:22;;;;;;;0.22;0.22;;;;;;;;;;5051113;28;20684;-76
2021/03/13 11:49:48;;;;;;;2.17;0.38;;;;;;;;;;5033458;28;20177;-79
2021/03/13 11:52:17;;;;;;;1.00;0.85;;;;;;;;;;5051309;28;20172;-77
2021/03/13 11:54:43;;;;;;;1.77;0.75;;;;;;;;;;5050206;28;20428;-76
2021/03/13 11:57:10;;;;;;;0.80;0.80;;;;;;;;;;5033231;28;20237;-78
2021/03/13 11:59:36;;;;;;;0.50;0.50;;;;;;;;;;5051216;28;20221;-77
2021/03/13 12:02:02;;;;;;;0.80;0.20;;;;;;;;;;5033454;28;20174;-78
2021/03/13 12:04:28;;;;;;;0.30;0.30;;;;;;;;;;5033746;28;20217;-77
2021/03/13 12:06:54;;;;;;;0.20;0.20;;;;;;;;;;5051003;28;20185;-76
2021/03/13 12:09:20;;;;;;;2.05;0.30;;;;;;;;;;5050845;28;20312;-77
2021/03/13 12:11:47;;;;;;;0.90;0.85;;;;;;;;;;5049892;28;20225;-77
2021/03/13 12:14:13;;;;;;;0.20;0.20;;;;;;;;;;5050428;28;20165;-77
2021/03/13 12:16:39;;;;;;;0.75;0.75;;;;;;;;;;5050119;28;20200;-77
2021/03/13 12:19:05;;;;;;;0.38;0.38;;;;;;;;;;5050403;28;20236;-77
2021/03/13 12:21:31;;;;;;;0.20;0.20;;;;;;;;;;5048898;28;20177;-76
2021/03/13 12:23:58;;;;;;;0.77;0.77;;;;;;;;;;5049029;28;20181;-77
2021/03/13 12:26:25;;;;;;;0.30;0.30;;;;;;;;;;5050526;28;20227;-76
2021/03/13 12:28:51;;;;;;;0.60;0.60;;;;;;;;;;5050475;28;20181;-78
2021/03/13 12:31:18;;;;;;;0.28;0.20;;;;;;;;;;5049790;28;20177;-77
2021/03/13 12:33:45;;;;;;;0.68;0.68;;;;;;;;;;5050749;28;20157;-78
2021/03/13 12:36:11;;;;;;;0.32;0.30;;;;;;;;;;5050332;28;20228;-77
2021/03/13 12:38:37;;;;;;;0.10;0.10;;;;;;;;;;5049075;28;20189;-78
2021/03/13 12:41:04;;;;;;;0.40;0.40;;;;;;;;;;5049710;28;20166;-76
2021/03/13 12:43:31;;;;;;;0.40;0.40;;;;;;;;;;5049449;28;20169;-75
2021/03/13 12:45:57;;;;;;;0.20;0.20;;;;;;;;;;5048789;28;20212;-75
2021/03/13 12:48:23;;;;;;;0.40;0.40;;;;;;;;;;5049993;28;20316;-75
2021/03/13 12:50:51;;;;;;;0.85;0.85;;;;;;;;;;5049134;28;20173;-75
2021/03/13 12:53:17;;;;;;;0.60;0.60;;;;;;;;;;5032187;28;20271;-75
2021/03/13 12:55:44;;;;;;;0.20;0.20;;;;;;;;;;5049788;28;20205;-75
2021/03/13 12:58:10;;;;;;;0.57;0.57;;;;;;;;;;5050092;28;20531;-75
2021/03/13 13:00:36;;;;;;;2.38;1.50;;;;;;;;;;5049888;28;20168;-76
2021/03/13 13:03:03;;;;;;;0.10;0.10;;;;;;;;;;5031995;28;20173;-75
2021/03/13 13:05:30;;;;;;;0.22;0.22;;;;;;;;;;5031436;28;20231;-74
2021/03/13 13:07:56;;;;;;;0.20;0.20;;;;;;;;;;5049864;28;20154;-75
2021/03/13 13:10:22;;;;;;;0.73;0.73;;;;;;;;;;5031845;28;20894;-75
2021/03/13 13:12:48;;;;;;;0.60;0.60;;;;;;;;;;5049610;28;20192;-74
2021/03/13 13:15:14;;;;;;;0.32;0.32;;;;;;;;;;5049299;28;20204;-75
2021/03/13 13:17:41;;;;;;;0.47;0.47;;;;;;;;;;5031483;28;20259;-74
2021/03/13 13:20:10;;;;;;;0.20;0.20;;;;;;;;;;5049676;28;20165;-74
2021/03/13 13:22:38;;;;;;;0.35;0.30;;;;;;;;;;5049311;28;20154;-74
2021/03/13 13:25:05;;;;;;;0.10;0.10;;;;;;;;;;5031405;28;20224;-75
2021/03/13 13:27:31;;;;;;;0.13;0.13;;;;;;;;;;5031528;28;20173;-75
2021/03/13 13:29:57;;;;;;;0.20;0.20;;;;;;;;;;5031593;28;20169;-74
2021/03/13 13:32:23;;;;;;;0.38;0.38;;;;;;;;;;5031535;28;20172;-76
2021/03/13 13:34:50;;;;;;;0.35;0.32;;;;;;;;;;5031162;28;20558;-72
2021/03/13 13:37:17;;;;;;;0.40;0.40;;;;;;;;;;5031341;28;20300;-72
2021/03/13 13:39:44;;;;;;;5.57;0.30;;;;;;;;;;5049110;28;20283;-72
2021/03/13 13:42:10;;;;;;;0.25;0.25;;;;;;;;;;5048859;28;20208;-72
2021/03/13 13:44:36;;;;;;;0.73;0.73;;;;;;;;;;5049305;28;20193;-72
2021/03/13 13:47:03;;;;;;;0.30;0.30;;;;;;;;;;5031665;28;20181;-73
2021/03/13 13:49:29;;;;;;;0.38;0.30;;;;;;;;;;5030969;28;20170;-71
2021/03/13 13:51:55;;;;;;;0.22;0.22;;;;;;;;;;5030984;28;20169;-72
2021/03/13 13:54:21;;;;;;;1.63;0.50;;;;;;;;;;5048851;28;20162;-73
2021/03/13 13:56:47;;;;;;;0.10;0.10;;;;;;;;;;5031050;28;20203;-73
2021/03/13 13:59:14;;;;;;;0.45;0.45;;;;;;;;;;5030476;28;20176;-72
2021/03/13 14:01:40;;;;;;;0.30;0.30;;;;;;;;;;5047094;28;20161;-71
2021/03/13 14:04:06;;;;;;;0.55;0.52;;;;;;;;;;5046694;28;20224;-72
2021/03/13 14:06:32;;;;;;;0.25;0.25;;;;;;;;;;5047372;28;20184;-73
2021/03/13 14:08:58;;;;;;;0.30;0.22;;;;;;;;;;5029584;28;20219;-72
2021/03/13 14:11:24;;;;;;;0.52;0.32;;;;;;;;;;5030148;28;20161;-73
2021/03/13 14:13:51;;;;;;;0.43;0.43;;;;;;;;;;5047673;28;20207;-71
2021/03/13 14:16:17;;;;;;;0.10;0.10;;;;;;;;;;5048479;28;20165;-72
2021/03/13 14:18:44;;;;;;;0.20;0.20;;;;;;;;;;5030845;28;20161;-71
2021/03/13 14:21:10;;;;;;;0.30;0.30;;;;;;;;;;5030746;28;20223;-72
2021/03/13 14:23:36;;;;;;;1.48;0.45;;;;;;;;;;5048585;28;20192;-71
2021/03/13 14:26:02;;;;;;;0.20;0.20;;;;;;;;;;5048626;28;20243;-73
2021/03/13 14:28:29;;;;;;;4.22;1.33;;;;;;;;;;5030829;28;20200;-72
2021/03/13 14:30:55;;;;;;;0.57;0.57;;;;;;;;;;5048689;28;20168;-72
2021/03/13 14:33:21;;;;;;;0.95;0.65;;;;;;;;;;5030777;28;20264;-72
2021/03/13 14:35:47;;;;;;;0.10;0.10;;;;;;;;;;5051490;28;20192;-72
2021/03/13 14:38:14;;;;;;;0.45;0.45;;;;;;;;;;5034843;28;20164;-72
2021/03/13 14:40:40;;;;;;;0.75;0.75;;;;;;;;;;5035014;28;20172;-73
2021/03/13 14:43:06;;;;;;;0.10;0.10;;;;;;;;;;5052642;28;20172;-73
2021/03/13 14:45:32;;;;;;;0.20;0.20;;;;;;;;;;5034734;28;20228;-75
2021/03/13 14:47:58;;;;;;;0.43;0.30;;;;;;;;;;5052295;28;20227;-74
2021/03/13 14:50:25;;;;;;;2.05;0.65;;;;;;;;;;5052001;28;20201;-74
2021/03/13 14:52:51;;;;;;;0.28;0.28;;;;;;;;;;5052391;28;20158;-74